createdAt,value
2019-03-05T00:01:27.684Z,7.2
2019-03-05T00:11:27.506Z,6.5
2019-03-05T00:21:26.414Z,5.2
2019-03-05T00:31:28.237Z,3.8
2019-03-05T00:41:27.384Z,5.4
2019-03-05T00:51:28.766Z,6.0
2019-03-05T01:01:27.202Z,4.4
2019-03-05T01:11:28.601Z,7.5
2019-03-05T01:21:26.661Z,5.0
2019-03-05T01:31:27.413Z,6.5
2019-03-05T01:41:27.793Z,3.4
2019-03-05T01:51:26.386Z,9.1
2019-03-05T02:01:27.848Z,7.0
2019-03-05T02:11:26.380Z,4.7
2019-03-05T02:21:27.797Z,5.8
2019-03-05T02:31:26.432Z,6.4
2019-03-05T02:41:27.340Z,8.6
2019-03-05T02:51:27.232Z,8.1
2019-03-05T03:01:27.437Z,6.4
2019-03-05T03:11:27.187Z,8.8
2019-03-05T03:21:27.108Z,6.7
2019-03-05T03:31:27.027Z,8.5
2019-03-05T03:41:28.130Z,11.3
2019-03-05T03:51:27.540Z,8.1
2019-03-05T04:01:27.460Z,6.9
2019-03-05T04:11:27.293Z,9.3
2019-03-05T04:21:27.293Z,6.0
2019-03-05T04:31:28.029Z,9.7
2019-03-05T04:41:26.831Z,8.7
2019-03-05T04:51:26.882Z,7.4
2019-03-05T05:01:26.660Z,9.5
2019-03-05T05:11:27.190Z,6.9
2019-03-05T05:21:27.680Z,8.7
2019-03-05T05:31:29.379Z,9.9
2019-03-05T05:41:27.861Z,8.3
2019-03-05T05:51:26.761Z,12.7
2019-03-05T06:01:26.919Z,16.8
2019-03-05T06:11:26.491Z,11.1
2019-03-05T06:21:27.243Z,10.7
2019-03-05T06:31:26.965Z,6.1
2019-03-05T06:41:26.632Z,9.0
2019-03-05T06:51:27.279Z,8.0
2019-03-05T07:01:28.139Z,5.0
2019-03-05T07:11:26.782Z,5.7
2019-03-05T07:21:27.200Z,7.0
2019-03-05T07:31:26.793Z,3.5
2019-03-05T07:41:29.826Z,5.2
2019-03-05T07:51:27.747Z,8.5
2019-03-05T08:01:28.010Z,9.8
2019-03-05T08:11:26.886Z,4.4
2019-03-05T08:21:27.818Z,4.2
2019-03-05T08:31:26.331Z,10.1
2019-03-05T08:41:27.792Z,7.9
2019-03-05T08:51:26.343Z,3.0
2019-03-05T09:01:28.557Z,2.9
2019-03-05T09:11:27.124Z,1.8
2019-03-05T09:21:27.356Z,3.5
2019-03-05T09:31:27.636Z,2.9
2019-03-05T09:41:28.720Z,3.3
2019-03-05T09:51:27.491Z,3.3
2019-03-05T10:01:27.616Z,4.4
2019-03-05T10:11:27.865Z,4.4
2019-03-05T10:21:27.811Z,2.8
2019-03-05T10:31:26.785Z,3.5
2019-03-05T10:41:26.822Z,4.8
2019-03-05T10:51:26.349Z,3.4
2019-03-05T11:01:28.044Z,1.5
2019-03-05T11:11:28.369Z,4.7
2019-03-05T11:21:27.169Z,2.4
2019-03-05T11:31:26.783Z,3.7
2019-03-05T11:41:29.031Z,3.6
2019-03-05T11:51:27.145Z,3.1
2019-03-05T12:01:27.097Z,2.3
2019-03-05T12:11:26.959Z,4.2
2019-03-05T12:21:27.984Z,2.4
2019-03-05T12:31:27.257Z,5.2
2019-03-05T12:41:26.914Z,4.9
2019-03-05T12:51:27.996Z,4.1
2019-03-05T13:01:27.494Z,2.8
2019-03-05T13:11:27.206Z,2.0
2019-03-05T13:21:27.911Z,4.9
2019-03-05T13:31:28.280Z,2.4
2019-03-05T13:41:27.170Z,3.1
2019-03-05T13:51:31.169Z,4.3
2019-03-05T14:01:29.118Z,6.6
2019-03-05T14:11:26.812Z,4.7
2019-03-05T14:21:26.928Z,2.5
2019-03-05T14:31:26.942Z,2.3
2019-03-05T14:41:27.409Z,3.2
2019-03-05T14:51:27.340Z,6.5
2019-03-05T15:01:27.107Z,5.7
2019-03-05T15:11:27.972Z,10.3
2019-03-05T15:21:27.523Z,9.1
2019-03-05T15:31:27.812Z,9.7
2019-03-05T15:41:26.469Z,10.9
2019-03-05T15:51:28.496Z,7.7
2019-03-05T16:01:26.246Z,8.9
2019-03-05T16:11:34.013Z,12.4
2019-03-05T16:21:28.376Z,11.7
2019-03-05T16:31:38.595Z,10.3
2019-03-05T16:41:27.189Z,7.6
2019-03-05T16:51:32.570Z,14.4
2019-03-05T17:01:28.414Z,12.6
2019-03-05T17:11:27.366Z,14.9
2019-03-05T17:21:28.663Z,12.7
2019-03-05T17:31:30.696Z,12.7
2019-03-05T17:41:26.793Z,18.4
2019-03-05T17:51:26.496Z,21.0
2019-03-05T18:01:27.343Z,15.9
2019-03-05T18:11:27.464Z,15.2
2019-03-05T18:21:27.520Z,12.3
2019-03-05T18:31:27.936Z,11.6
2019-03-05T18:41:27.150Z,13.1
2019-03-05T18:51:27.394Z,6.9
2019-03-05T19:01:27.818Z,8.8
2019-03-05T19:11:27.910Z,10.0
2019-03-05T19:21:27.529Z,16.7
2019-03-05T19:31:27.344Z,11.3
2019-03-05T19:41:27.953Z,8.6
2019-03-05T19:51:27.649Z,7.5
2019-03-05T20:01:26.540Z,4.8
2019-03-05T20:11:27.871Z,5.2
2019-03-05T20:21:27.401Z,9.2
2019-03-05T20:31:27.546Z,7.1
2019-03-05T20:41:27.448Z,6.9
2019-03-05T20:51:28.171Z,6.8
2019-03-05T21:01:26.218Z,7.1
2019-03-05T21:11:26.803Z,8.5
2019-03-05T21:21:26.670Z,8.5
2019-03-05T21:31:28.210Z,8.6
2019-03-05T21:41:26.681Z,10.0
2019-03-05T21:51:27.180Z,9.5
2019-03-05T22:01:27.982Z,9.0
2019-03-05T22:11:26.423Z,13.8
2019-03-05T22:21:26.762Z,12.2
2019-03-05T22:31:27.601Z,18.9
2019-03-05T22:41:29.334Z,19.3
2019-03-05T22:51:27.923Z,20.6
2019-03-05T23:01:28.154Z,19.9
2019-03-05T23:11:27.581Z,18.1
2019-03-05T23:21:27.129Z,20.6
2019-03-05T23:31:27.088Z,22.1
2019-03-05T23:41:26.758Z,16.4
2019-03-05T23:51:26.939Z,18.8
